Time;durP1;ratioP1;P1;durP2;ratioP2;P2;SDS_P1;SDS_P2;PMS_P1;PMS_P2;Temp;Humidity;BMP_temperature;BMP_pressure;BME280_temperature;BME280_humidity;BME280_pressure;Samples;Min_cycle;Max_cycle;Signal;HPM_P1;HPM_P2
2023/12/27 00:02:56;;;;;;;17.05;9.63;;;;;;;;;;10300131;28;20056;-52
2023/12/27 00:07:55;;;;;;;7.97;5.45;;;;;;;;;;10291475;28;20548;-53
2023/12/27 00:12:53;;;;;;;11.98;6.57;;;;;;;;;;10305602;28;20072;-52
2023/12/27 00:17:51;;;;;;;13.18;6.25;;;;;;;;;;10310266;28;20065;-54
2023/12/27 00:22:51;;;;;;;11.35;5.60;;;;;;;;;;10299058;28;20075;-53
2023/12/27 00:27:50;;;;;;;9.90;6.20;;;;;;;;;;10299584;28;20471;-54
2023/12/27 00:32:49;;;;;;;9.85;5.95;;;;;;;;;;10315425;28;20088;-54
2023/12/27 00:37:47;;;;;;;10.70;6.20;;;;;;;;;;10301277;28;20078;-52
2023/12/27 00:42:47;;;;;;;8.13;5.00;;;;;;;;;;10310105;28;20068;-51
2023/12/27 00:47:46;;;;;;;9.25;5.68;;;;;;;;;;10290769;28;20094;-53
2023/12/27 00:52:45;;;;;;;12.70;5.75;;;;;;;;;;10308995;28;20078;-53
2023/12/27 00:57:43;;;;;;;8.35;5.75;;;;;;;;;;10302454;28;20071;-53
2023/12/27 01:02:42;;;;;;;12.20;6.00;;;;;;;;;;10318964;28;20076;-48
2023/12/27 01:07:41;;;;;;;12.20;6.32;;;;;;;;;;10295892;28;20127;-52
2023/12/27 01:12:40;;;;;;;10.45;6.32;;;;;;;;;;10292449;28;20060;-53
2023/12/27 01:17:40;;;;;;;13.50;6.32;;;;;;;;;;10297902;28;20620;-49
2023/12/27 01:22:39;;;;;;;11.80;6.30;;;;;;;;;;10299480;28;20072;-53
2023/12/27 01:27:37;;;;;;;10.70;5.53;;;;;;;;;;10287311;28;20133;-51
2023/12/27 01:32:36;;;;;;;10.98;6.43;;;;;;;;;;10273161;28;20091;-52
2023/12/27 01:37:34;;;;;;;13.00;5.57;;;;;;;;;;10284730;28;20099;-51
2023/12/27 01:42:34;;;;;;;10.73;6.72;;;;;;;;;;10286247;28;20079;-54
2023/12/27 01:47:34;;;;;;;10.85;6.35;;;;;;;;;;10275805;28;20083;-52
2023/12/27 01:52:33;;;;;;;12.48;6.40;;;;;;;;;;10280248;28;20076;-53
2023/12/27 01:57:31;;;;;;;9.48;5.60;;;;;;;;;;10281714;28;20072;-53
2023/12/27 02:02:31;;;;;;;11.15;6.18;;;;;;;;;;10285461;28;20083;-53
2023/12/27 02:07:29;;;;;;;14.30;6.22;;;;;;;;;;10281303;28;20490;-52
2023/12/27 02:12:29;;;;;;;11.88;5.40;;;;;;;;;;10286448;28;20076;-53
2023/12/27 02:17:29;;;;;;;9.35;5.82;;;;;;;;;;10282093;28;20087;-56
2023/12/27 02:22:29;;;;;;;10.75;6.15;;;;;;;;;;10283004;28;20088;-52
2023/12/27 02:27:28;;;;;;;11.00;5.35;;;;;;;;;;10283825;28;20086;-54
2023/12/27 02:32:27;;;;;;;10.02;5.32;;;;;;;;;;10278830;28;20451;-54
2023/12/27 02:37:25;;;;;;;12.93;7.10;;;;;;;;;;10300189;28;20084;-53
2023/12/27 02:42:23;;;;;;;10.68;7.05;;;;;;;;;;10284710;28;20073;-55
2023/12/27 02:47:24;;;;;;;11.15;6.90;;;;;;;;;;10286240;28;20065;-53
2023/12/27 02:52:22;;;;;;;13.07;6.28;;;;;;;;;;10286087;28;20037;-53
2023/12/27 02:57:20;;;;;;;11.55;7.28;;;;;;;;;;10292738;28;20051;-53
2023/12/27 03:02:18;;;;;;;11.88;5.47;;;;;;;;;;10292507;28;20041;-53
2023/12/27 03:07:18;;;;;;;7.35;5.85;;;;;;;;;;10292542;28;20076;-50
2023/12/27 03:12:16;;;;;;;8.80;5.50;;;;;;;;;;10293026;28;20076;-52
2023/12/27 03:17:14;;;;;;;9.85;5.10;;;;;;;;;;10292144;28;20072;-53
2023/12/27 03:22:13;;;;;;;7.65;5.25;;;;;;;;;;10292867;28;20538;-50
2023/12/27 03:27:12;;;;;;;36.85;22.88;;;;;;;;;;10292949;28;20075;-51
2023/12/27 03:32:11;;;;;;;8.15;4.90;;;;;;;;;;10292725;28;20084;-51
2023/12/27 03:37:09;;;;;;;8.10;4.95;;;;;;;;;;10287894;28;20115;-49
2023/12/27 03:42:07;;;;;;;9.27;6.20;;;;;;;;;;10290684;28;20067;-53
2023/12/27 03:47:09;;;;;;;9.43;5.20;;;;;;;;;;10297911;28;20076;-51
2023/12/27 03:52:07;;;;;;;9.05;5.53;;;;;;;;;;10293032;28;20066;-53
2023/12/27 03:57:05;;;;;;;8.82;5.53;;;;;;;;;;10287868;28;20510;-51
2023/12/27 04:02:04;;;;;;;11.98;5.25;;;;;;;;;;10284721;28;20065;-49
2023/12/27 04:07:03;;;;;;;7.65;5.20;;;;;;;;;;10289774;28;20076;-51
2023/12/27 04:12:01;;;;;;;13.43;5.10;;;;;;;;;;10290507;28;20064;-49
2023/12/27 04:17:00;;;;;;;9.10;5.28;;;;;;;;;;10292144;28;20330;-52
2023/12/27 04:21:58;;;;;;;12.15;6.25;;;;;;;;;;10292596;28;20065;-52
2023/12/27 04:26:58;;;;;;;13.55;10.15;;;;;;;;;;10289211;28;20080;-53
2023/12/27 04:31:56;;;;;;;10.48;5.85;;;;;;;;;;10292021;28;20111;-51
2023/12/27 04:36:54;;;;;;;7.13;5.60;;;;;;;;;;10289825;28;20080;-49
2023/12/27 04:41:53;;;;;;;9.10;5.25;;;;;;;;;;10291292;28;20108;-53
2023/12/27 04:46:52;;;;;;;8.38;4.90;;;;;;;;;;10290793;28;20082;-53
2023/12/27 04:51:51;;;;;;;10.68;5.50;;;;;;;;;;10291721;28;20072;-55
2023/12/27 04:56:54;;;;;;;8.63;5.80;;;;;;;;;;10307842;28;20052;-54
2023/12/27 05:01:54;;;;;;;9.85;5.63;;;;;;;;;;10294307;28;20539;-54
2023/12/27 05:06:54;;;;;;;9.95;5.22;;;;;;;;;;10293061;28;20083;-54
2023/12/27 05:11:52;;;;;;;28.80;15.27;;;;;;;;;;10290010;28;20079;-52
2023/12/27 05:16:50;;;;;;;10.40;6.05;;;;;;;;;;10288799;28;20076;-51
2023/12/27 05:21:50;;;;;;;10.68;6.95;;;;;;;;;;10286967;28;20069;-52
2023/12/27 05:26:48;;;;;;;11.63;6.55;;;;;;;;;;10288934;28;20079;-51
2023/12/27 05:31:46;;;;;;;13.60;7.32;;;;;;;;;;10290044;28;20069;-53
2023/12/27 05:36:45;;;;;;;13.43;6.85;;;;;;;;;;10288749;28;20076;-51
2023/12/27 05:41:45;;;;;;;8.18;6.38;;;;;;;;;;10289455;28;20075;-53
2023/12/27 05:46:43;;;;;;;13.02;8.40;;;;;;;;;;10288864;28;20072;-54
2023/12/27 05:51:41;;;;;;;16.88;8.48;;;;;;;;;;10289104;28;20072;-51
2023/12/27 05:56:39;;;;;;;9.70;7.20;;;;;;;;;;10289654;28;20072;-51
2023/12/27 06:01:45;;;;;;;11.35;6.05;;;;;;;;;;10291394;28;20076;-50
2023/12/27 06:06:44;;;;;;;9.73;6.43;;;;;;;;;;10282121;28;20479;-51
2023/12/27 06:11:42;;;;;;;15.38;10.82;;;;;;;;;;10286999;28;20068;-53
2023/12/27 06:16:42;;;;;;;12.00;6.63;;;;;;;;;;10288624;28;20076;-53
2023/12/27 06:21:40;;;;;;;13.73;9.65;;;;;;;;;;10284199;28;20079;-54
2023/12/27 06:26:38;;;;;;;14.65;7.35;;;;;;;;;;10286294;28;20068;-52
2023/12/27 06:31:36;;;;;;;11.43;6.45;;;;;;;;;;10285835;28;20073;-52
2023/12/27 06:36:36;;;;;;;12.75;9.15;;;;;;;;;;10286418;28;20088;-49
2023/12/27 06:41:35;;;;;;;16.80;9.07;;;;;;;;;;10286313;28;20065;-55
2023/12/27 06:46:33;;;;;;;12.95;9.90;;;;;;;;;;10284713;28;20529;-54
2023/12/27 06:51:31;;;;;;;14.43;9.02;;;;;;;;;;10281906;28;20076;-53
2023/12/27 06:56:31;;;;;;;13.32;9.43;;;;;;;;;;10285987;28;20079;-53
2023/12/27 07:01:29;;;;;;;10.93;8.18;;;;;;;;;;10283160;28;20547;-54
2023/12/27 07:06:27;;;;;;;13.45;8.98;;;;;;;;;;10286683;28;20111;-54
2023/12/27 07:11:26;;;;;;;11.40;7.55;;;;;;;;;;10280564;28;20065;-53
2023/12/27 07:16:25;;;;;;;16.38;10.23;;;;;;;;;;10285931;28;20631;-52
2023/12/27 07:21:24;;;;;;;18.30;10.25;;;;;;;;;;10286778;28;20071;-52
2023/12/27 07:26:22;;;;;;;20.55;12.05;;;;;;;;;;10287579;28;20498;-51
2023/12/27 07:31:20;;;;;;;17.83;10.10;;;;;;;;;;10280876;28;20064;-52
2023/12/27 07:36:20;;;;;;;19.92;10.07;;;;;;;;;;10286595;28;20119;-53
2023/12/27 07:41:20;;;;;;;14.55;9.20;;;;;;;;;;10287467;28;20076;-49
2023/12/27 07:46:19;;;;;;;22.60;16.50;;;;;;;;;;10288808;28;20088;-53
2023/12/27 07:51:17;;;;;;;20.35;15.10;;;;;;;;;;10294118;28;20486;-49
2023/12/27 07:56:18;;;;;;;13.50;9.50;;;;;;;;;;10288728;28;20513;-53
2023/12/27 08:01:16;;;;;;;15.43;10.02;;;;;;;;;;10292870;28;20072;-53
2023/12/27 08:06:19;;;;;;;13.38;10.18;;;;;;;;;;10290706;28;20087;-54
2023/12/27 08:11:20;;;;;;;20.92;13.38;;;;;;;;;;10291121;28;20072;-55
2023/12/27 08:16:18;;;;;;;21.33;13.45;;;;;;;;;;10292423;28;20075;-54
2023/12/27 08:21:17;;;;;;;13.40;8.93;;;;;;;;;;10288900;28;20072;-53
2023/12/27 08:26:15;;;;;;;13.95;9.80;;;;;;;;;;10289885;28;20154;-51
2023/12/27 08:31:14;;;;;;;10.90;7.03;;;;;;;;;;10290895;28;20077;-53
2023/12/27 08:36:13;;;;;;;27.73;15.52;;;;;;;;;;10291813;28;20529;-52
2023/12/27 08:41:11;;;;;;;25.83;18.17;;;;;;;;;;10288241;28;20068;-50
2023/12/27 08:46:10;;;;;;;10.35;8.35;;;;;;;;;;10289917;28;20069;-52
2023/12/27 08:51:11;;;;;;;17.83;9.70;;;;;;;;;;10290858;28;20090;-53
2023/12/27 08:56:09;;;;;;;12.77;8.43;;;;;;;;;;10289410;28;20075;-51
2023/12/27 09:01:08;;;;;;;13.20;7.82;;;;;;;;;;10289893;28;20079;-51
2023/12/27 09:06:06;;;;;;;10.00;7.50;;;;;;;;;;10288324;28;20083;-53
2023/12/27 09:11:06;;;;;;;12.07;8.57;;;;;;;;;;10292123;28;20077;-50
2023/12/27 09:16:05;;;;;;;10.45;6.22;;;;;;;;;;10290108;28;20073;-53
2023/12/27 09:21:03;;;;;;;9.90;6.65;;;;;;;;;;10289219;28;20086;-47
2023/12/27 09:26:02;;;;;;;11.55;8.00;;;;;;;;;;10286079;28;20690;-50
2023/12/27 09:31:01;;;;;;;7.47;5.93;;;;;;;;;;10286549;28;20160;-51
2023/12/27 09:36:00;;;;;;;10.88;7.43;;;;;;;;;;10287794;28;20577;-53
2023/12/27 09:40:58;;;;;;;10.77;7.72;;;;;;;;;;10280645;28;20064;-54
2023/12/27 09:45:56;;;;;;;7.82;6.13;;;;;;;;;;10281059;28;20727;-53
2023/12/27 09:50:57;;;;;;;8.60;6.00;;;;;;;;;;10280985;28;20085;-52
2023/12/27 09:55:55;;;;;;;12.52;8.40;;;;;;;;;;10276654;28;20064;-52
2023/12/27 10:00:55;;;;;;;12.90;8.25;;;;;;;;;;10275744;28;20079;-54
2023/12/27 10:05:59;;;;;;;15.55;10.90;;;;;;;;;;10281052;28;20067;-51
2023/12/27 10:10:59;;;;;;;27.10;16.00;;;;;;;;;;10287388;28;20091;-55
2023/12/27 10:15:57;;;;;;;25.67;14.85;;;;;;;;;;10287161;28;20080;-53
2023/12/27 10:20:55;;;;;;;24.15;13.23;;;;;;;;;;10284383;28;20060;-53
2023/12/27 10:25:54;;;;;;;16.48;8.57;;;;;;;;;;10287340;28;20069;-53
2023/12/27 10:30:53;;;;;;;12.45;7.05;;;;;;;;;;10285700;28;20076;-52
2023/12/27 10:35:52;;;;;;;10.15;6.30;;;;;;;;;;10286986;28;20064;-50
2023/12/27 10:40:52;;;;;;;6.75;4.95;;;;;;;;;;10286519;28;20083;-53
2023/12/27 10:45:51;;;;;;;7.50;4.45;;;;;;;;;;10281331;28;20075;-48
2023/12/27 10:50:51;;;;;;;7.45;5.22;;;;;;;;;;10287450;28;20092;-52
2023/12/27 10:55:49;;;;;;;8.77;4.65;;;;;;;;;;10286025;28;20076;-54
2023/12/27 11:00:48;;;;;;;9.27;5.57;;;;;;;;;;10285541;28;20635;-51
2023/12/27 11:05:47;;;;;;;5.65;4.32;;;;;;;;;;10286832;28;20067;-52
2023/12/27 11:10:49;;;;;;;6.72;3.95;;;;;;;;;;10284446;28;20076;-47
2023/12/27 11:15:48;;;;;;;4.90;3.90;;;;;;;;;;10285809;28;20069;-51
2023/12/27 11:20:47;;;;;;;6.20;3.70;;;;;;;;;;10289942;28;20071;-53
2023/12/27 11:25:47;;;;;;;10.13;4.50;;;;;;;;;;10295092;28;20498;-48
2023/12/27 11:30:46;;;;;;;5.65;5.05;;;;;;;;;;10293862;28;20107;-47
2023/12/27 11:35:46;;;;;;;9.77;5.00;;;;;;;;;;10293030;28;20080;-48
2023/12/27 11:40:45;;;;;;;3.75;3.00;;;;;;;;;;10296842;28;20084;-50
2023/12/27 11:45:58;;;;;;;5.60;4.57;;;;;;;;;;10288293;28;20593;-52
2023/12/27 11:51:00;;;;;;;4.85;2.90;;;;;;;;;;10292653;28;20097;-54
2023/12/27 11:55:59;;;;;;;7.25;5.25;;;;;;;;;;10292873;28;20065;-53
2023/12/27 12:00:57;;;;;;;5.05;3.15;;;;;;;;;;10291926;28;20068;-48
2023/12/27 12:06:06;;;;;;;6.47;3.90;;;;;;;;;;10291312;28;20064;-50
2023/12/27 12:11:09;;;;;;;9.40;3.65;;;;;;;;;;10292020;28;20104;-53
2023/12/27 12:16:07;;;;;;;27.67;13.18;;;;;;;;;;10292498;28;20083;-52
2023/12/27 12:21:07;;;;;;;9.88;5.95;;;;;;;;;;10288202;28;20080;-53
2023/12/27 12:26:06;;;;;;;8.48;7.28;;;;;;;;;;10291557;28;20076;-53
2023/12/27 12:31:04;;;;;;;9.45;4.63;;;;;;;;;;10285957;28;20080;-54
2023/12/27 12:36:03;;;;;;;4.72;3.08;;;;;;;;;;10291047;28;20092;-53
2023/12/27 12:41:04;;;;;;;4.30;3.03;;;;;;;;;;10290598;28;20067;-55
2023/12/27 12:46:02;;;;;;;6.63;3.65;;;;;;;;;;10291395;28;20466;-55
2023/12/27 12:51:10;;;;;;;5.22;4.07;;;;;;;;;;10291257;28;20088;-55
2023/12/27 12:56:10;;;;;;;6.90;5.03;;;;;;;;;;10290177;28;20082;-53
2023/12/27 13:01:10;;;;;;;4.68;3.83;;;;;;;;;;10290231;28;20068;-53
2023/12/27 13:06:09;;;;;;;10.00;4.30;;;;;;;;;;10290508;28;20076;-54
2023/12/27 13:11:07;;;;;;;22.98;12.00;;;;;;;;;;10288821;28;20087;-53
2023/12/27 13:16:07;;;;;;;6.80;4.25;;;;;;;;;;10289542;28;20497;-50
2023/12/27 13:21:07;;;;;;;6.60;4.60;;;;;;;;;;10284958;28;20068;-53
2023/12/27 13:26:06;;;;;;;6.82;3.55;;;;;;;;;;10290729;28;20089;-52
2023/12/27 13:31:05;;;;;;;10.75;8.65;;;;;;;;;;10289425;28;20080;-53
2023/12/27 13:36:05;;;;;;;7.28;4.95;;;;;;;;;;10288739;28;20081;-53
2023/12/27 13:41:03;;;;;;;5.32;3.97;;;;;;;;;;10290344;28;20069;-52
2023/12/27 13:46:05;;;;;;;4.90;3.42;;;;;;;;;;10287343;28;20451;-53
2023/12/27 13:51:05;;;;;;;14.57;8.55;;;;;;;;;;10288608;28;20087;-52
2023/12/27 13:56:04;;;;;;;4.72;3.33;;;;;;;;;;10288569;28;20526;-53
2023/12/27 14:01:04;;;;;;;5.05;4.32;;;;;;;;;;10288284;28;20049;-50
2023/12/27 14:06:04;;;;;;;7.57;4.57;;;;;;;;;;10288257;28;20079;-50
2023/12/27 14:11:04;;;;;;;7.03;5.78;;;;;;;;;;10287848;28;20499;-53
2023/12/27 14:16:03;;;;;;;8.02;5.05;;;;;;;;;;10286108;28;20072;-52
2023/12/27 14:21:03;;;;;;;5.45;3.92;;;;;;;;;;10288268;28;20075;-52
2023/12/27 14:26:02;;;;;;;5.35;4.60;;;;;;;;;;10282308;28;20073;-51
2023/12/27 14:31:02;;;;;;;9.40;7.38;;;;;;;;;;10287641;28;20107;-52
2023/12/27 14:36:04;;;;;;;9.05;5.72;;;;;;;;;;10286760;28;20084;-52
2023/12/27 14:41:03;;;;;;;8.70;7.80;;;;;;;;;;10287608;28;20072;-52
2023/12/27 14:46:03;;;;;;;23.98;21.50;;;;;;;;;;10285606;28;20060;-52
2023/12/27 14:51:02;;;;;;;7.30;6.60;;;;;;;;;;10286741;28;20076;-53
2023/12/27 14:56:00;;;;;;;12.93;8.13;;;;;;;;;;10291141;28;20064;-50
2023/12/27 15:00:58;;;;;;;9.93;9.07;;;;;;;;;;10295659;28;20065;-51
2023/12/27 15:05:58;;;;;;;16.80;12.75;;;;;;;;;;10293215;28;20091;-54
2023/12/27 15:10:56;;;;;;;22.60;16.50;;;;;;;;;;10294519;28;20076;-49
2023/12/27 15:15:55;;;;;;;18.20;13.88;;;;;;;;;;10293796;28;20075;-52
2023/12/27 15:20:53;;;;;;;15.43;11.35;;;;;;;;;;10293655;28;20587;-49
2023/12/27 15:25:53;;;;;;;19.65;14.30;;;;;;;;;;10293037;28;20072;-50
2023/12/27 15:30:51;;;;;;;15.45;13.60;;;;;;;;;;10296186;28;20080;-50
2023/12/27 15:35:50;;;;;;;12.23;9.25;;;;;;;;;;10292790;28;20080;-54
2023/12/27 15:40:48;;;;;;;15.80;12.52;;;;;;;;;;10286043;28;20080;-51
2023/12/27 15:45:47;;;;;;;22.40;15.25;;;;;;;;;;10291722;28;20076;-52
2023/12/27 15:50:46;;;;;;;12.10;10.77;;;;;;;;;;10287606;28;20076;-54
2023/12/27 15:55:44;;;;;;;14.15;11.85;;;;;;;;;;10289311;28;20076;-51
2023/12/27 16:00:42;;;;;;;11.77;9.82;;;;;;;;;;10288927;28;20087;-52
2023/12/27 16:05:45;;;;;;;36.25;26.27;;;;;;;;;;10291341;28;20053;-51
2023/12/27 16:10:43;;;;;;;8.65;7.32;;;;;;;;;;10291540;28;20091;-53
2023/12/27 16:15:41;;;;;;;11.77;9.30;;;;;;;;;;10291934;28;20075;-53
2023/12/27 16:20:40;;;;;;;13.55;9.20;;;;;;;;;;10292437;28;20068;-53
2023/12/27 16:25:40;;;;;;;13.30;9.88;;;;;;;;;;10287316;28;20068;-51
2023/12/27 16:30:38;;;;;;;11.05;9.88;;;;;;;;;;10290067;28;20082;-52
2023/12/27 16:35:37;;;;;;;16.67;13.70;;;;;;;;;;10288452;28;20510;-55
2023/12/27 16:40:35;;;;;;;20.77;13.50;;;;;;;;;;10290119;28;20064;-50
2023/12/27 16:45:35;;;;;;;17.40;13.95;;;;;;;;;;10289434;28;20071;-53
2023/12/27 16:50:33;;;;;;;10.70;7.50;;;;;;;;;;10288091;28;20076;-50
2023/12/27 16:55:31;;;;;;;11.57;9.13;;;;;;;;;;10289005;28;20061;-53
2023/12/27 17:00:30;;;;;;;15.90;9.75;;;;;;;;;;10289820;28;20067;-54
2023/12/27 17:05:29;;;;;;;10.68;8.23;;;;;;;;;;10290440;28;20060;-54
2023/12/27 17:10:28;;;;;;;17.17;15.00;;;;;;;;;;10289583;28;20073;-53
2023/12/27 17:15:27;;;;;;;39.65;31.15;;;;;;;;;;10292027;28;20095;-54
2023/12/27 17:20:25;;;;;;;9.00;8.10;;;;;;;;;;10287127;28;20071;-54
2023/12/27 17:25:27;;;;;;;7.32;6.68;;;;;;;;;;10287852;28;20075;-54
2023/12/27 17:30:26;;;;;;;9.07;7.72;;;;;;;;;;10284226;28;20084;-54
2023/12/27 17:35:24;;;;;;;23.10;12.27;;;;;;;;;;10284718;28;20091;-53
2023/12/27 17:40:23;;;;;;;11.82;7.97;;;;;;;;;;10284241;28;20065;-52
2023/12/27 17:45:22;;;;;;;6.50;5.50;;;;;;;;;;10287838;28;20072;-52
2023/12/27 17:50:21;;;;;;;7.60;5.82;;;;;;;;;;10287665;28;20067;-53
2023/12/27 17:55:19;;;;;;;7.50;5.82;;;;;;;;;;10280029;28;20069;-51
2023/12/27 18:00:18;;;;;;;11.13;7.32;;;;;;;;;;10287533;28;20068;-53
2023/12/27 18:05:18;;;;;;;13.18;7.70;;;;;;;;;;10287710;28;20071;-54
2023/12/27 18:10:16;;;;;;;6.80;5.68;;;;;;;;;;10287822;28;20076;-54
2023/12/27 18:15:14;;;;;;;6.72;5.25;;;;;;;;;;10286230;28;20071;-52
2023/12/27 18:20:13;;;;;;;5.93;4.88;;;;;;;;;;10286361;28;20064;-51
2023/12/27 18:25:13;;;;;;;5.38;4.22;;;;;;;;;;10285480;28;20084;-49
2023/12/27 18:30:11;;;;;;;12.13;8.20;;;;;;;;;;10282980;28;20446;-50
2023/12/27 18:35:10;;;;;;;6.82;5.88;;;;;;;;;;10287192;28;20091;-53
2023/12/27 18:40:09;;;;;;;9.20;6.95;;;;;;;;;;10286276;28;20547;-53
2023/12/27 18:45:10;;;;;;;19.80;14.60;;;;;;;;;;10282695;28;20592;-52
2023/12/27 18:50:08;;;;;;;9.50;7.05;;;;;;;;;;10288330;28;20073;-53
2023/12/27 18:55:07;;;;;;;9.43;5.65;;;;;;;;;;10283379;28;20091;-51
2023/12/27 19:00:07;;;;;;;11.15;6.22;;;;;;;;;;10284919;28;20080;-53
2023/12/27 19:05:07;;;;;;;7.38;5.78;;;;;;;;;;10285547;28;20076;-52
2023/12/27 19:10:06;;;;;;;6.60;5.95;;;;;;;;;;10285286;28;20037;-53
2023/12/27 19:15:04;;;;;;;7.82;6.10;;;;;;;;;;10287698;28;20525;-51
2023/12/27 19:20:03;;;;;;;7.25;5.78;;;;;;;;;;10282491;28;20079;-52
2023/12/27 19:25:04;;;;;;;7.95;5.40;;;;;;;;;;10283586;28;20073;-54
2023/12/27 19:30:04;;;;;;;9.27;7.28;;;;;;;;;;10281428;28;20068;-54
2023/12/27 19:35:03;;;;;;;10.27;7.07;;;;;;;;;;10282492;28;20087;-53
2023/12/27 19:40:03;;;;;;;11.07;5.32;;;;;;;;;;10284788;28;20080;-53
2023/12/27 19:45:02;;;;;;;5.68;4.38;;;;;;;;;;10293997;28;20630;-52
2023/12/27 19:50:01;;;;;;;5.57;3.88;;;;;;;;;;10291419;28;20071;-53
2023/12/27 19:54:59;;;;;;;7.68;4.10;;;;;;;;;;10288675;28;20064;-48
2023/12/27 19:59:59;;;;;;;6.90;4.43;;;;;;;;;;10291176;28;20075;-50
2023/12/27 20:04:57;;;;;;;6.22;5.30;;;;;;;;;;10289490;28;20072;-51
2023/12/27 20:09:55;;;;;;;7.80;6.30;;;;;;;;;;10295464;28;20060;-53
2023/12/27 20:14:54;;;;;;;7.57;6.45;;;;;;;;;;10291562;28;20076;-48
2023/12/27 20:19:54;;;;;;;6.30;4.97;;;;;;;;;;10292265;28;20075;-47
2023/12/27 20:24:52;;;;;;;5.10;4.20;;;;;;;;;;10290772;28;20136;-50
2023/12/27 20:29:51;;;;;;;5.07;4.57;;;;;;;;;;10293448;28;20077;-49
2023/12/27 20:34:52;;;;;;;7.90;5.53;;;;;;;;;;10292106;28;20171;-53
2023/12/27 20:39:52;;;;;;;9.63;5.50;;;;;;;;;;10287856;28;20072;-48
2023/12/27 20:44:50;;;;;;;7.38;4.20;;;;;;;;;;10286135;28;20071;-48
2023/12/27 20:49:48;;;;;;;6.22;4.03;;;;;;;;;;10292781;28;20072;-50
2023/12/27 20:54:47;;;;;;;7.43;4.78;;;;;;;;;;10289002;28;20510;-49
2023/12/27 20:59:47;;;;;;;6.05;4.45;;;;;;;;;;10290912;28;20079;-52
2023/12/27 21:04:45;;;;;;;5.72;4.78;;;;;;;;;;10289625;28;20068;-46
2023/12/27 21:09:44;;;;;;;6.15;5.38;;;;;;;;;;10291361;28;20077;-50
2023/12/27 21:14:42;;;;;;;7.95;5.15;;;;;;;;;;10290967;28;20098;-51
2023/12/27 21:19:42;;;;;;;9.85;7.68;;;;;;;;;;10288867;28;20665;-48
2023/12/27 21:24:40;;;;;;;13.30;11.02;;;;;;;;;;10286928;28;20506;-48
2023/12/27 21:29:39;;;;;;;34.05;17.80;;;;;;;;;;10289076;28;20529;-50
2023/12/27 21:34:37;;;;;;;13.85;9.07;;;;;;;;;;10288370;28;20481;-46
2023/12/27 21:39:37;;;;;;;9.85;5.75;;;;;;;;;;10288038;28;20098;-51
2023/12/27 21:44:40;;;;;;;7.82;5.15;;;;;;;;;;10284401;28;20053;-52
2023/12/27 21:49:38;;;;;;;6.13;4.93;;;;;;;;;;10287148;28;20103;-46
2023/12/27 21:54:38;;;;;;;11.20;7.30;;;;;;;;;;10279577;28;20072;-47
2023/12/27 21:59:36;;;;;;;8.90;6.90;;;;;;;;;;10283338;28;20079;-52
2023/12/27 22:04:34;;;;;;;8.15;5.20;;;;;;;;;;10285966;28;20064;-54
2023/12/27 22:09:32;;;;;;;5.70;4.18;;;;;;;;;;10288323;28;20076;-52
2023/12/27 22:14:32;;;;;;;6.75;4.60;;;;;;;;;;10285890;28;20090;-53
2023/12/27 22:19:31;;;;;;;6.05;4.65;;;;;;;;;;10288502;28;20162;-54
2023/12/27 22:24:29;;;;;;;6.60;4.78;;;;;;;;;;10284145;28;20076;-54
2023/12/27 22:29:28;;;;;;;4.75;4.13;;;;;;;;;;10286562;28;20068;-53
2023/12/27 22:34:27;;;;;;;5.25;4.43;;;;;;;;;;10286772;28;20088;-52
2023/12/27 22:39:25;;;;;;;6.22;4.63;;;;;;;;;;10286408;28;20450;-54
2023/12/27 22:44:24;;;;;;;5.35;4.40;;;;;;;;;;10286412;28;20080;-54
2023/12/27 22:49:22;;;;;;;6.75;4.43;;;;;;;;;;10287765;28;20076;-54
2023/12/27 22:54:22;;;;;;;12.23;8.07;;;;;;;;;;10286620;28;20348;-54
2023/12/27 22:59:20;;;;;;;16.98;10.57;;;;;;;;;;10286500;28;20510;-54
2023/12/27 23:04:20;;;;;;;23.25;13.85;;;;;;;;;;10284600;28;20511;-54
2023/12/27 23:09:18;;;;;;;19.52;10.75;;;;;;;;;;10288067;28;20596;-55
2023/12/27 23:14:18;;;;;;;10.30;7.18;;;;;;;;;;10284803;28;20072;-53
2023/12/27 23:19:16;;;;;;;17.25;10.43;;;;;;;;;;10294344;28;20053;-52
2023/12/27 23:24:14;;;;;;;7.38;4.97;;;;;;;;;;10290534;28;20075;-53
2023/12/27 23:29:13;;;;;;;6.82;5.63;;;;;;;;;;10289871;28;20080;-52
2023/12/27 23:34:13;;;;;;;6.25;3.78;;;;;;;;;;10288502;28;20088;-52
2023/12/27 23:39:12;;;;;;;5.90;4.07;;;;;;;;;;10288472;28;20684;-53
2023/12/27 23:44:10;;;;;;;4.40;3.75;;;;;;;;;;10292559;28;20068;-53
2023/12/27 23:49:08;;;;;;;4.53;4.03;;;;;;;;;;10292666;28;20073;-54
2023/12/27 23:54:08;;;;;;;4.05;3.50;;;;;;;;;;10300646;28;20087;-52
2023/12/27 23:59:06;;;;;;;5.18;3.53;;;;;;;;;;10293442;28;20072;-53
